sensor_id;sensor_type;location;lat;lon;timestamp;P1;durP1;ratioP1;P2;durP2;ratioP2
61938;SDS011;47897;50.322;18.892;2023-03-14T00:01:27;8.20;;;4.70;;
61938;SDS011;47897;50.322;18.892;2023-03-14T00:03:54;9.50;;;4.70;;
61938;SDS011;47897;50.322;18.892;2023-03-14T00:06:21;7.00;;;4.50;;
61938;SDS011;47897;50.322;18.892;2023-03-14T00:08:48;7.90;;;4.80;;
61938;SDS011;47897;50.322;18.892;2023-03-14T00:11:16;7.60;;;4.50;;
61938;SDS011;47897;50.322;18.892;2023-03-14T00:13:42;7.60;;;4.10;;
61938;SDS011;47897;50.322;18.892;2023-03-14T00:16:10;7.50;;;4.30;;
61938;SDS011;47897;50.322;18.892;2023-03-14T00:18:37;7.40;;;4.00;;
61938;SDS011;47897;50.322;18.892;2023-03-14T00:21:05;7.50;;;4.60;;
61938;SDS011;47897;50.322;18.892;2023-03-14T00:23:32;7.70;;;4.30;;
61938;SDS011;47897;50.322;18.892;2023-03-14T00:26:00;8.20;;;4.00;;
61938;SDS011;47897;50.322;18.892;2023-03-14T00:28:27;7.50;;;4.10;;
61938;SDS011;47897;50.322;18.892;2023-03-14T00:30:54;7.70;;;4.00;;
61938;SDS011;47897;50.322;18.892;2023-03-14T00:33:21;7.30;;;4.20;;
61938;SDS011;47897;50.322;18.892;2023-03-14T00:35:57;6.70;;;4.30;;
61938;SDS011;47897;50.322;18.892;2023-03-14T00:38:25;7.30;;;4.40;;
61938;SDS011;47897;50.322;18.892;2023-03-14T00:40:52;9.00;;;5.00;;
61938;SDS011;47897;50.322;18.892;2023-03-14T00:43:19;7.90;;;4.40;;
61938;SDS011;47897;50.322;18.892;2023-03-14T00:45:51;7.50;;;4.70;;
61938;SDS011;47897;50.322;18.892;2023-03-14T00:48:19;7.00;;;5.00;;
61938;SDS011;47897;50.322;18.892;2023-03-14T00:50:46;9.20;;;5.80;;
61938;SDS011;47897;50.322;18.892;2023-03-14T00:53:13;8.20;;;5.60;;
61938;SDS011;47897;50.322;18.892;2023-03-14T00:55:40;7.70;;;5.60;;
61938;SDS011;47897;50.322;18.892;2023-03-14T00:58:07;9.60;;;5.00;;
61938;SDS011;47897;50.322;18.892;2023-03-14T01:00:34;7.60;;;5.10;;
61938;SDS011;47897;50.322;18.892;2023-03-14T01:03:00;7.90;;;5.20;;
61938;SDS011;47897;50.322;18.892;2023-03-14T01:05:27;7.50;;;5.10;;
61938;SDS011;47897;50.322;18.892;2023-03-14T01:07:54;9.50;;;5.30;;
61938;SDS011;47897;50.322;18.892;2023-03-14T01:10:21;8.00;;;5.30;;
61938;SDS011;47897;50.322;18.892;2023-03-14T01:12:48;6.50;;;4.80;;
61938;SDS011;47897;50.322;18.892;2023-03-14T01:15:15;7.80;;;5.00;;
61938;SDS011;47897;50.322;18.892;2023-03-14T01:17:41;8.30;;;4.40;;
61938;SDS011;47897;50.322;18.892;2023-03-14T01:20:09;7.50;;;4.10;;
61938;SDS011;47897;50.322;18.892;2023-03-14T01:22:37;9.60;;;4.20;;
61938;SDS011;47897;50.322;18.892;2023-03-14T01:25:07;8.40;;;4.60;;
61938;SDS011;47897;50.322;18.892;2023-03-14T01:27:34;7.90;;;4.70;;
61938;SDS011;47897;50.322;18.892;2023-03-14T01:30:00;9.10;;;4.80;;
61938;SDS011;47897;50.322;18.892;2023-03-14T01:32:28;7.90;;;4.70;;
61938;SDS011;47897;50.322;18.892;2023-03-14T01:34:55;8.10;;;5.30;;
61938;SDS011;47897;50.322;18.892;2023-03-14T01:37:21;9.80;;;5.00;;
61938;SDS011;47897;50.322;18.892;2023-03-14T01:39:48;5.90;;;4.20;;
61938;SDS011;47897;50.322;18.892;2023-03-14T01:42:15;7.50;;;5.00;;
61938;SDS011;47897;50.322;18.892;2023-03-14T01:44:52;8.10;;;5.00;;
61938;SDS011;47897;50.322;18.892;2023-03-14T01:47:19;9.00;;;4.90;;
61938;SDS011;47897;50.322;18.892;2023-03-14T01:49:48;9.50;;;5.10;;
61938;SDS011;47897;50.322;18.892;2023-03-14T01:57:43;10.80;;;6.40;;
61938;SDS011;47897;50.322;18.892;2023-03-14T02:00:04;9.70;;;6.10;;
61938;SDS011;47897;50.322;18.892;2023-03-14T02:02:37;10.80;;;6.10;;
61938;SDS011;47897;50.322;18.892;2023-03-14T02:05:05;8.40;;;5.50;;
61938;SDS011;47897;50.322;18.892;2023-03-14T02:07:34;10.20;;;6.00;;
61938;SDS011;47897;50.322;18.892;2023-03-14T02:10:03;9.60;;;5.90;;
61938;SDS011;47897;50.322;18.892;2023-03-14T02:12:30;8.30;;;6.60;;
61938;SDS011;47897;50.322;18.892;2023-03-14T02:14:57;13.10;;;7.70;;
61938;SDS011;47897;50.322;18.892;2023-03-14T02:17:24;10.70;;;6.20;;
61938;SDS011;47897;50.322;18.892;2023-03-14T02:20:03;12.00;;;6.30;;
61938;SDS011;47897;50.322;18.892;2023-03-14T02:22:34;9.00;;;5.90;;
61938;SDS011;47897;50.322;18.892;2023-03-14T02:27:28;13.10;;;7.40;;
61938;SDS011;47897;50.322;18.892;2023-03-14T02:30:03;11.90;;;7.20;;
61938;SDS011;47897;50.322;18.892;2023-03-14T02:32:32;8.20;;;5.50;;
61938;SDS011;47897;50.322;18.892;2023-03-14T02:35:00;9.60;;;5.40;;
61938;SDS011;47897;50.322;18.892;2023-03-14T02:37:41;6.70;;;4.50;;
61938;SDS011;47897;50.322;18.892;2023-03-14T02:40:09;11.30;;;5.80;;
61938;SDS011;47897;50.322;18.892;2023-03-14T02:42:36;16.00;;;8.10;;
61938;SDS011;47897;50.322;18.892;2023-03-14T02:47:32;14.30;;;6.90;;
61938;SDS011;47897;50.322;18.892;2023-03-14T02:50:03;13.10;;;6.50;;
61938;SDS011;47897;50.322;18.892;2023-03-14T02:52:30;11.60;;;5.70;;
61938;SDS011;47897;50.322;18.892;2023-03-14T02:54:57;11.80;;;6.20;;
61938;SDS011;47897;50.322;18.892;2023-03-14T02:57:23;13.20;;;6.30;;
61938;SDS011;47897;50.322;18.892;2023-03-14T02:59:50;9.20;;;5.20;;
61938;SDS011;47897;50.322;18.892;2023-03-14T03:02:17;8.00;;;4.80;;
61938;SDS011;47897;50.322;18.892;2023-03-14T03:04:44;7.10;;;4.60;;
61938;SDS011;47897;50.322;18.892;2023-03-14T03:07:11;7.60;;;4.60;;
61938;SDS011;47897;50.322;18.892;2023-03-14T03:09:37;6.80;;;4.30;;
61938;SDS011;47897;50.322;18.892;2023-03-14T03:12:04;8.20;;;4.50;;
61938;SDS011;47897;50.322;18.892;2023-03-14T03:14:31;9.20;;;5.30;;
61938;SDS011;47897;50.322;18.892;2023-03-14T03:16:57;7.80;;;4.70;;
61938;SDS011;47897;50.322;18.892;2023-03-14T03:19:24;10.20;;;4.90;;
61938;SDS011;47897;50.322;18.892;2023-03-14T03:21:51;9.00;;;4.60;;
61938;SDS011;47897;50.322;18.892;2023-03-14T03:24:17;7.70;;;4.70;;
61938;SDS011;47897;50.322;18.892;2023-03-14T03:26:44;10.20;;;4.40;;
61938;SDS011;47897;50.322;18.892;2023-03-14T03:29:11;10.40;;;6.10;;
61938;SDS011;47897;50.322;18.892;2023-03-14T03:31:39;9.70;;;5.80;;
61938;SDS011;47897;50.322;18.892;2023-03-14T03:36:35;7.70;;;4.40;;
61938;SDS011;47897;50.322;18.892;2023-03-14T03:39:02;9.00;;;4.90;;
61938;SDS011;47897;50.322;18.892;2023-03-14T03:41:30;13.30;;;6.50;;
61938;SDS011;47897;50.322;18.892;2023-03-14T03:43:57;12.70;;;6.30;;
61938;SDS011;47897;50.322;18.892;2023-03-14T03:46:23;12.40;;;6.80;;
61938;SDS011;47897;50.322;18.892;2023-03-14T03:48:59;11.90;;;7.10;;
61938;SDS011;47897;50.322;18.892;2023-03-14T03:51:26;11.20;;;6.80;;
61938;SDS011;47897;50.322;18.892;2023-03-14T03:53:52;11.70;;;7.50;;
61938;SDS011;47897;50.322;18.892;2023-03-14T03:56:19;16.80;;;7.30;;
61938;SDS011;47897;50.322;18.892;2023-03-14T03:58:46;12.10;;;7.30;;
61938;SDS011;47897;50.322;18.892;2023-03-14T04:01:12;11.30;;;6.90;;
61938;SDS011;47897;50.322;18.892;2023-03-14T04:03:39;14.30;;;7.10;;
61938;SDS011;47897;50.322;18.892;2023-03-14T04:06:11;13.40;;;7.40;;
61938;SDS011;47897;50.322;18.892;2023-03-14T04:08:38;14.30;;;8.20;;
61938;SDS011;47897;50.322;18.892;2023-03-14T04:11:07;16.20;;;9.20;;
61938;SDS011;47897;50.322;18.892;2023-03-14T04:13:33;13.10;;;8.20;;
61938;SDS011;47897;50.322;18.892;2023-03-14T04:16:00;15.20;;;8.20;;
61938;SDS011;47897;50.322;18.892;2023-03-14T04:18:27;12.60;;;7.20;;
61938;SDS011;47897;50.322;18.892;2023-03-14T04:20:56;14.70;;;8.70;;
61938;SDS011;47897;50.322;18.892;2023-03-14T04:23:23;15.00;;;8.60;;
61938;SDS011;47897;50.322;18.892;2023-03-14T04:25:51;17.10;;;9.50;;
61938;SDS011;47897;50.322;18.892;2023-03-14T04:28:18;15.80;;;9.10;;
61938;SDS011;47897;50.322;18.892;2023-03-14T04:30:45;18.80;;;10.10;;
61938;SDS011;47897;50.322;18.892;2023-03-14T04:33:12;20.50;;;11.90;;
61938;SDS011;47897;50.322;18.892;2023-03-14T04:35:41;34.00;;;15.40;;
61938;SDS011;47897;50.322;18.892;2023-03-14T04:38:08;34.50;;;16.70;;
61938;SDS011;47897;50.322;18.892;2023-03-14T04:40:38;32.50;;;14.50;;
61938;SDS011;47897;50.322;18.892;2023-03-14T04:43:05;37.50;;;17.60;;
61938;SDS011;47897;50.322;18.892;2023-03-14T04:45:32;36.10;;;14.10;;
61938;SDS011;47897;50.322;18.892;2023-03-14T04:47:59;21.00;;;10.70;;
61938;SDS011;47897;50.322;18.892;2023-03-14T04:50:25;23.40;;;9.30;;
61938;SDS011;47897;50.322;18.892;2023-03-14T04:52:52;21.90;;;11.10;;
61938;SDS011;47897;50.322;18.892;2023-03-14T04:55:19;22.00;;;13.00;;
61938;SDS011;47897;50.322;18.892;2023-03-14T04:57:45;22.00;;;13.40;;
61938;SDS011;47897;50.322;18.892;2023-03-14T05:00:12;23.10;;;12.70;;
61938;SDS011;47897;50.322;18.892;2023-03-14T05:02:39;24.60;;;12.30;;
61938;SDS011;47897;50.322;18.892;2023-03-14T05:05:06;25.30;;;12.40;;
61938;SDS011;47897;50.322;18.892;2023-03-14T05:07:33;28.70;;;16.70;;
61938;SDS011;47897;50.322;18.892;2023-03-14T05:09:59;26.00;;;14.00;;
61938;SDS011;47897;50.322;18.892;2023-03-14T05:12:26;26.80;;;15.10;;
61938;SDS011;47897;50.322;18.892;2023-03-14T05:14:56;31.20;;;15.10;;
61938;SDS011;47897;50.322;18.892;2023-03-14T05:17:22;36.70;;;16.80;;
61938;SDS011;47897;50.322;18.892;2023-03-14T05:19:49;38.30;;;17.90;;
61938;SDS011;47897;50.322;18.892;2023-03-14T05:22:16;31.20;;;15.40;;
61938;SDS011;47897;50.322;18.892;2023-03-14T05:24:42;22.30;;;11.80;;
61938;SDS011;47897;50.322;18.892;2023-03-14T05:27:09;24.60;;;12.60;;
61938;SDS011;47897;50.322;18.892;2023-03-14T05:29:35;23.20;;;11.40;;
61938;SDS011;47897;50.322;18.892;2023-03-14T05:32:02;18.20;;;10.30;;
61938;SDS011;47897;50.322;18.892;2023-03-14T05:34:29;14.10;;;8.50;;
61938;SDS011;47897;50.322;18.892;2023-03-14T05:36:56;20.70;;;9.60;;
61938;SDS011;47897;50.322;18.892;2023-03-14T05:39:23;17.80;;;10.20;;
61938;SDS011;47897;50.322;18.892;2023-03-14T05:41:50;19.70;;;9.40;;
61938;SDS011;47897;50.322;18.892;2023-03-14T05:44:17;15.80;;;8.70;;
61938;SDS011;47897;50.322;18.892;2023-03-14T05:46:43;20.30;;;9.60;;
61938;SDS011;47897;50.322;18.892;2023-03-14T05:49:10;18.60;;;10.20;;
61938;SDS011;47897;50.322;18.892;2023-03-14T05:51:37;20.80;;;9.50;;
61938;SDS011;47897;50.322;18.892;2023-03-14T05:54:03;18.90;;;8.90;;
61938;SDS011;47897;50.322;18.892;2023-03-14T05:56:30;18.20;;;9.40;;
61938;SDS011;47897;50.322;18.892;2023-03-14T05:58:57;19.40;;;10.10;;
61938;SDS011;47897;50.322;18.892;2023-03-14T06:01:23;24.30;;;11.90;;
61938;SDS011;47897;50.322;18.892;2023-03-14T06:03:50;25.50;;;10.70;;
61938;SDS011;47897;50.322;18.892;2023-03-14T06:06:16;25.80;;;12.50;;
61938;SDS011;47897;50.322;18.892;2023-03-14T06:08:43;23.90;;;12.30;;
61938;SDS011;47897;50.322;18.892;2023-03-14T06:11:10;21.10;;;10.90;;
61938;SDS011;47897;50.322;18.892;2023-03-14T06:13:37;25.00;;;10.80;;
61938;SDS011;47897;50.322;18.892;2023-03-14T06:16:03;18.10;;;10.00;;
61938;SDS011;47897;50.322;18.892;2023-03-14T06:18:30;20.20;;;9.90;;
61938;SDS011;47897;50.322;18.892;2023-03-14T06:20:59;22.50;;;10.10;;
61938;SDS011;47897;50.322;18.892;2023-03-14T06:23:25;18.00;;;9.30;;
61938;SDS011;47897;50.322;18.892;2023-03-14T06:25:52;15.40;;;8.20;;
61938;SDS011;47897;50.322;18.892;2023-03-14T06:28:19;14.70;;;7.60;;
61938;SDS011;47897;50.322;18.892;2023-03-14T06:30:46;11.70;;;7.00;;
61938;SDS011;47897;50.322;18.892;2023-03-14T06:33:12;11.20;;;6.60;;
61938;SDS011;47897;50.322;18.892;2023-03-14T06:35:39;12.30;;;7.20;;
61938;SDS011;47897;50.322;18.892;2023-03-14T06:38:06;15.20;;;6.90;;
61938;SDS011;47897;50.322;18.892;2023-03-14T06:40:32;13.80;;;7.40;;
61938;SDS011;47897;50.322;18.892;2023-03-14T06:42:59;10.30;;;5.50;;
61938;SDS011;47897;50.322;18.892;2023-03-14T06:45:26;10.00;;;5.20;;
61938;SDS011;47897;50.322;18.892;2023-03-14T06:47:52;10.20;;;6.10;;
61938;SDS011;47897;50.322;18.892;2023-03-14T06:50:19;13.10;;;6.70;;
61938;SDS011;47897;50.322;18.892;2023-03-14T06:52:46;10.60;;;6.30;;
61938;SDS011;47897;50.322;18.892;2023-03-14T06:55:14;10.70;;;6.40;;
61938;SDS011;47897;50.322;18.892;2023-03-14T06:57:41;15.80;;;7.30;;
61938;SDS011;47897;50.322;18.892;2023-03-14T07:00:11;13.20;;;7.00;;
61938;SDS011;47897;50.322;18.892;2023-03-14T07:02:38;13.40;;;6.80;;
61938;SDS011;47897;50.322;18.892;2023-03-14T07:05:05;11.20;;;7.20;;
61938;SDS011;47897;50.322;18.892;2023-03-14T07:07:32;14.70;;;7.10;;
61938;SDS011;47897;50.322;18.892;2023-03-14T07:10:00;11.30;;;6.80;;
61938;SDS011;47897;50.322;18.892;2023-03-14T07:12:27;13.40;;;7.40;;
61938;SDS011;47897;50.322;18.892;2023-03-14T07:14:54;14.00;;;7.30;;
61938;SDS011;47897;50.322;18.892;2023-03-14T07:17:20;11.60;;;6.80;;
61938;SDS011;47897;50.322;18.892;2023-03-14T07:19:48;15.50;;;7.80;;
61938;SDS011;47897;50.322;18.892;2023-03-14T07:22:15;11.90;;;7.40;;
61938;SDS011;47897;50.322;18.892;2023-03-14T07:24:42;11.40;;;6.90;;
61938;SDS011;47897;50.322;18.892;2023-03-14T07:27:08;14.60;;;7.20;;
61938;SDS011;47897;50.322;18.892;2023-03-14T07:29:35;14.20;;;7.20;;
61938;SDS011;47897;50.322;18.892;2023-03-14T07:32:02;10.70;;;6.60;;
61938;SDS011;47897;50.322;18.892;2023-03-14T07:34:29;15.60;;;8.40;;
61938;SDS011;47897;50.322;18.892;2023-03-14T07:36:56;14.00;;;7.80;;
61938;SDS011;47897;50.322;18.892;2023-03-14T07:39:22;12.10;;;6.70;;
61938;SDS011;47897;50.322;18.892;2023-03-14T07:41:49;11.70;;;6.40;;
61938;SDS011;47897;50.322;18.892;2023-03-14T07:44:16;12.80;;;6.40;;
61938;SDS011;47897;50.322;18.892;2023-03-14T07:46:42;11.10;;;6.70;;
61938;SDS011;47897;50.322;18.892;2023-03-14T07:49:09;13.80;;;6.90;;
61938;SDS011;47897;50.322;18.892;2023-03-14T07:51:35;11.30;;;6.20;;
61938;SDS011;47897;50.322;18.892;2023-03-14T07:54:02;13.80;;;7.00;;
61938;SDS011;47897;50.322;18.892;2023-03-14T07:56:29;16.60;;;8.20;;
61938;SDS011;47897;50.322;18.892;2023-03-14T07:58:56;17.40;;;9.60;;
61938;SDS011;47897;50.322;18.892;2023-03-14T08:01:22;15.20;;;8.70;;
61938;SDS011;47897;50.322;18.892;2023-03-14T08:03:49;16.50;;;8.00;;
61938;SDS011;47897;50.322;18.892;2023-03-14T08:06:16;9.90;;;5.90;;
61938;SDS011;47897;50.322;18.892;2023-03-14T08:08:42;12.70;;;6.20;;
61938;SDS011;47897;50.322;18.892;2023-03-14T08:11:09;13.20;;;7.80;;
61938;SDS011;47897;50.322;18.892;2023-03-14T08:13:36;15.00;;;7.90;;
61938;SDS011;47897;50.322;18.892;2023-03-14T08:16:03;21.30;;;8.80;;
61938;SDS011;47897;50.322;18.892;2023-03-14T08:18:30;13.60;;;6.90;;
61938;SDS011;47897;50.322;18.892;2023-03-14T08:20:57;10.80;;;6.10;;
61938;SDS011;47897;50.322;18.892;2023-03-14T08:23:24;8.70;;;5.20;;
61938;SDS011;47897;50.322;18.892;2023-03-14T08:25:51;12.80;;;6.70;;
61938;SDS011;47897;50.322;18.892;2023-03-14T08:28:18;11.60;;;6.80;;
61938;SDS011;47897;50.322;18.892;2023-03-14T08:30:44;14.00;;;7.10;;
61938;SDS011;47897;50.322;18.892;2023-03-14T08:33:11;12.80;;;6.90;;
61938;SDS011;47897;50.322;18.892;2023-03-14T08:35:38;14.70;;;7.70;;
61938;SDS011;47897;50.322;18.892;2023-03-14T08:38:05;14.80;;;8.20;;
61938;SDS011;47897;50.322;18.892;2023-03-14T08:40:31;16.10;;;6.10;;
61938;SDS011;47897;50.322;18.892;2023-03-14T08:42:58;16.90;;;8.70;;
61938;SDS011;47897;50.322;18.892;2023-03-14T08:45:25;14.00;;;7.80;;
61938;SDS011;47897;50.322;18.892;2023-03-14T08:47:51;13.20;;;7.10;;
61938;SDS011;47897;50.322;18.892;2023-03-14T08:50:18;15.90;;;7.60;;
61938;SDS011;47897;50.322;18.892;2023-03-14T08:52:45;12.30;;;7.60;;
61938;SDS011;47897;50.322;18.892;2023-03-14T08:55:12;16.00;;;8.10;;
61938;SDS011;47897;50.322;18.892;2023-03-14T08:57:38;14.40;;;8.10;;
61938;SDS011;47897;50.322;18.892;2023-03-14T09:00:05;17.40;;;7.90;;
61938;SDS011;47897;50.322;18.892;2023-03-14T09:02:37;15.60;;;6.90;;
61938;SDS011;47897;50.322;18.892;2023-03-14T09:05:04;11.70;;;6.60;;
61938;SDS011;47897;50.322;18.892;2023-03-14T09:07:31;12.80;;;7.10;;
61938;SDS011;47897;50.322;18.892;2023-03-14T09:09:58;15.80;;;8.30;;
61938;SDS011;47897;50.322;18.892;2023-03-14T09:12:24;14.40;;;6.60;;
61938;SDS011;47897;50.322;18.892;2023-03-14T09:14:51;13.20;;;6.80;;
61938;SDS011;47897;50.322;18.892;2023-03-14T09:17:18;12.10;;;6.70;;
61938;SDS011;47897;50.322;18.892;2023-03-14T09:19:45;11.50;;;6.40;;
61938;SDS011;47897;50.322;18.892;2023-03-14T09:22:11;14.00;;;6.70;;
61938;SDS011;47897;50.322;18.892;2023-03-14T09:24:39;14.70;;;7.10;;
61938;SDS011;47897;50.322;18.892;2023-03-14T09:27:06;12.20;;;6.40;;
61938;SDS011;47897;50.322;18.892;2023-03-14T09:29:33;13.40;;;6.50;;
61938;SDS011;47897;50.322;18.892;2023-03-14T09:32:00;11.90;;;6.70;;
61938;SDS011;47897;50.322;18.892;2023-03-14T09:34:26;12.40;;;6.60;;
61938;SDS011;47897;50.322;18.892;2023-03-14T09:36:53;14.90;;;6.40;;
61938;SDS011;47897;50.322;18.892;2023-03-14T09:39:20;10.50;;;6.40;;
61938;SDS011;47897;50.322;18.892;2023-03-14T09:41:47;12.20;;;6.50;;
61938;SDS011;47897;50.322;18.892;2023-03-14T09:46:45;10.00;;;5.40;;
61938;SDS011;47897;50.322;18.892;2023-03-14T09:49:38;12.20;;;6.80;;
61938;SDS011;47897;50.322;18.892;2023-03-14T09:52:05;13.60;;;7.20;;
61938;SDS011;47897;50.322;18.892;2023-03-14T09:57:00;14.80;;;7.20;;
61938;SDS011;47897;50.322;18.892;2023-03-14T09:59:27;12.00;;;6.90;;
61938;SDS011;47897;50.322;18.892;2023-03-14T10:01:56;12.00;;;6.20;;
61938;SDS011;47897;50.322;18.892;2023-03-14T10:04:24;11.70;;;6.70;;
61938;SDS011;47897;50.322;18.892;2023-03-14T10:06:51;11.60;;;7.10;;
61938;SDS011;47897;50.322;18.892;2023-03-14T10:09:21;15.60;;;7.50;;
61938;SDS011;47897;50.322;18.892;2023-03-14T10:11:55;11.20;;;5.50;;
61938;SDS011;47897;50.322;18.892;2023-03-14T10:14:29;12.50;;;7.10;;
61938;SDS011;47897;50.322;18.892;2023-03-14T10:17:01;10.50;;;6.70;;
61938;SDS011;47897;50.322;18.892;2023-03-14T10:19:30;12.60;;;7.10;;
61938;SDS011;47897;50.322;18.892;2023-03-14T10:21:57;16.40;;;7.40;;
61938;SDS011;47897;50.322;18.892;2023-03-14T10:27:04;14.90;;;7.20;;
61938;SDS011;47897;50.322;18.892;2023-03-14T10:29:31;16.50;;;8.20;;
61938;SDS011;47897;50.322;18.892;2023-03-14T10:32:06;17.50;;;7.80;;
61938;SDS011;47897;50.322;18.892;2023-03-14T10:34:37;17.40;;;8.20;;
61938;SDS011;47897;50.322;18.892;2023-03-14T10:37:22;11.30;;;5.80;;
61938;SDS011;47897;50.322;18.892;2023-03-14T10:39:52;10.80;;;5.90;;
61938;SDS011;47897;50.322;18.892;2023-03-14T10:42:21;14.70;;;7.70;;
61938;SDS011;47897;50.322;18.892;2023-03-14T10:44:51;14.50;;;7.70;;
61938;SDS011;47897;50.322;18.892;2023-03-14T10:47:21;13.10;;;6.90;;
61938;SDS011;47897;50.322;18.892;2023-03-14T10:49:48;14.10;;;8.10;;
61938;SDS011;47897;50.322;18.892;2023-03-14T10:52:25;13.90;;;8.20;;
61938;SDS011;47897;50.322;18.892;2023-03-14T10:55:03;15.80;;;9.10;;
61938;SDS011;47897;50.322;18.892;2023-03-14T10:57:38;17.20;;;9.00;;
61938;SDS011;47897;50.322;18.892;2023-03-14T11:00:05;15.30;;;8.30;;
61938;SDS011;47897;50.322;18.892;2023-03-14T11:02:49;19.90;;;10.00;;
61938;SDS011;47897;50.322;18.892;2023-03-14T11:07:54;12.50;;;7.20;;
61938;SDS011;47897;50.322;18.892;2023-03-14T11:10:35;15.60;;;8.80;;
61938;SDS011;47897;50.322;18.892;2023-03-14T11:15:37;15.10;;;7.50;;
61938;SDS011;47897;50.322;18.892;2023-03-14T11:25:36;13.70;;;7.50;;
61938;SDS011;47897;50.322;18.892;2023-03-14T11:28:09;12.80;;;8.60;;
61938;SDS011;47897;50.322;18.892;2023-03-14T11:38:09;11.00;;;3.90;;
61938;SDS011;47897;50.322;18.892;2023-03-14T11:40:37;11.60;;;6.70;;
61938;SDS011;47897;50.322;18.892;2023-03-14T11:45:35;11.90;;;7.70;;
61938;SDS011;47897;50.322;18.892;2023-03-14T11:50:29;13.40;;;6.80;;
61938;SDS011;47897;50.322;18.892;2023-03-14T11:52:58;11.30;;;5.80;;
61938;SDS011;47897;50.322;18.892;2023-03-14T11:55:30;11.40;;;7.90;;
61938;SDS011;47897;50.322;18.892;2023-03-14T12:00:39;17.70;;;10.30;;
61938;SDS011;47897;50.322;18.892;2023-03-14T12:03:21;14.40;;;9.40;;
61938;SDS011;47897;50.322;18.892;2023-03-14T12:08:50;17.10;;;8.70;;
61938;SDS011;47897;50.322;18.892;2023-03-14T12:11:19;16.20;;;9.50;;
61938;SDS011;47897;50.322;18.892;2023-03-14T12:13:48;17.50;;;9.60;;
61938;SDS011;47897;50.322;18.892;2023-03-14T12:18:51;19.60;;;9.40;;
61938;SDS011;47897;50.322;18.892;2023-03-14T12:21:18;14.90;;;9.00;;
61938;SDS011;47897;50.322;18.892;2023-03-14T12:23:48;11.10;;;7.70;;
61938;SDS011;47897;50.322;18.892;2023-03-14T12:26:20;14.10;;;7.50;;
61938;SDS011;47897;50.322;18.892;2023-03-14T12:42:03;11.40;;;7.70;;
61938;SDS011;47897;50.322;18.892;2023-03-14T12:46:57;28.70;;;16.80;;
61938;SDS011;47897;50.322;18.892;2023-03-14T12:49:30;21.60;;;12.60;;
61938;SDS011;47897;50.322;18.892;2023-03-14T12:52:01;17.70;;;10.40;;
61938;SDS011;47897;50.322;18.892;2023-03-14T12:57:00;19.90;;;10.80;;
61938;SDS011;47897;50.322;18.892;2023-03-14T12:59:35;17.80;;;10.70;;
61938;SDS011;47897;50.322;18.892;2023-03-14T13:04:45;19.70;;;10.20;;
61938;SDS011;47897;50.322;18.892;2023-03-14T13:12:38;31.90;;;15.70;;
61938;SDS011;47897;50.322;18.892;2023-03-14T13:15:13;26.90;;;16.30;;
61938;SDS011;47897;50.322;18.892;2023-03-14T13:17:41;43.90;;;21.10;;
61938;SDS011;47897;50.322;18.892;2023-03-14T13:23:01;33.00;;;17.10;;
61938;SDS011;47897;50.322;18.892;2023-03-14T13:25:34;25.30;;;12.50;;
61938;SDS011;47897;50.322;18.892;2023-03-14T13:28:02;35.00;;;18.40;;
61938;SDS011;47897;50.322;18.892;2023-03-14T13:30:35;28.20;;;14.80;;
61938;SDS011;47897;50.322;18.892;2023-03-14T13:33:03;28.80;;;15.90;;
61938;SDS011;47897;50.322;18.892;2023-03-14T13:35:37;30.60;;;17.20;;
61938;SDS011;47897;50.322;18.892;2023-03-14T13:38:04;34.50;;;16.00;;
61938;SDS011;47897;50.322;18.892;2023-03-14T13:40:31;46.60;;;21.50;;
61938;SDS011;47897;50.322;18.892;2023-03-14T13:43:03;33.80;;;17.70;;
61938;SDS011;47897;50.322;18.892;2023-03-14T13:45:30;22.30;;;12.50;;
61938;SDS011;47897;50.322;18.892;2023-03-14T13:47:57;23.00;;;13.20;;
61938;SDS011;47897;50.322;18.892;2023-03-14T13:50:24;32.60;;;17.70;;
61938;SDS011;47897;50.322;18.892;2023-03-14T13:52:56;34.10;;;17.80;;
61938;SDS011;47897;50.322;18.892;2023-03-14T13:55:24;26.50;;;13.60;;
61938;SDS011;47897;50.322;18.892;2023-03-14T13:57:52;34.90;;;18.10;;
61938;SDS011;47897;50.322;18.892;2023-03-14T14:00:23;32.20;;;15.10;;
61938;SDS011;47897;50.322;18.892;2023-03-14T14:02:56;32.40;;;18.30;;
61938;SDS011;47897;50.322;18.892;2023-03-14T14:05:27;25.20;;;11.70;;
61938;SDS011;47897;50.322;18.892;2023-03-14T14:07:55;21.50;;;12.90;;
61938;SDS011;47897;50.322;18.892;2023-03-14T14:10:21;23.10;;;14.30;;
61938;SDS011;47897;50.322;18.892;2023-03-14T14:12:50;30.50;;;17.60;;
61938;SDS011;47897;50.322;18.892;2023-03-14T14:15:40;40.00;;;21.30;;
61938;SDS011;47897;50.322;18.892;2023-03-14T14:18:08;56.10;;;26.80;;
61938;SDS011;47897;50.322;18.892;2023-03-14T14:20:40;33.40;;;19.00;;
61938;SDS011;47897;50.322;18.892;2023-03-14T14:25:34;37.30;;;19.40;;
61938;SDS011;47897;50.322;18.892;2023-03-14T14:28:14;38.90;;;23.20;;
61938;SDS011;47897;50.322;18.892;2023-03-14T14:30:40;41.70;;;25.70;;
61938;SDS011;47897;50.322;18.892;2023-03-14T14:33:25;42.60;;;23.20;;
61938;SDS011;47897;50.322;18.892;2023-03-14T14:35:53;29.70;;;18.60;;
61938;SDS011;47897;50.322;18.892;2023-03-14T14:38:21;33.80;;;19.30;;
61938;SDS011;47897;50.322;18.892;2023-03-14T14:40:49;32.90;;;19.20;;
61938;SDS011;47897;50.322;18.892;2023-03-14T14:43:23;42.20;;;21.40;;
61938;SDS011;47897;50.322;18.892;2023-03-14T14:45:51;35.90;;;20.50;;
61938;SDS011;47897;50.322;18.892;2023-03-14T14:48:22;33.90;;;18.20;;
61938;SDS011;47897;50.322;18.892;2023-03-14T14:55:59;28.90;;;17.20;;
61938;SDS011;47897;50.322;18.892;2023-03-14T14:58:33;27.40;;;17.00;;
61938;SDS011;47897;50.322;18.892;2023-03-14T15:01:19;24.50;;;15.90;;
61938;SDS011;47897;50.322;18.892;2023-03-14T15:03:51;23.30;;;14.90;;
61938;SDS011;47897;50.322;18.892;2023-03-14T15:06:19;20.70;;;12.90;;
61938;SDS011;47897;50.322;18.892;2023-03-14T15:08:46;24.90;;;13.60;;
61938;SDS011;47897;50.322;18.892;2023-03-14T15:11:18;27.20;;;14.60;;
61938;SDS011;47897;50.322;18.892;2023-03-14T15:13:45;26.50;;;14.20;;
61938;SDS011;47897;50.322;18.892;2023-03-14T15:16:12;20.80;;;11.60;;
61938;SDS011;47897;50.322;18.892;2023-03-14T15:18:40;15.90;;;10.00;;
61938;SDS011;47897;50.322;18.892;2023-03-14T15:21:08;17.40;;;10.30;;
61938;SDS011;47897;50.322;18.892;2023-03-14T15:23:35;19.30;;;10.40;;
61938;SDS011;47897;50.322;18.892;2023-03-14T15:26:02;20.20;;;12.20;;
61938;SDS011;47897;50.322;18.892;2023-03-14T15:28:29;28.40;;;15.50;;
61938;SDS011;47897;50.322;18.892;2023-03-14T15:30:57;18.80;;;11.70;;
61938;SDS011;47897;50.322;18.892;2023-03-14T15:33:27;31.80;;;16.20;;
61938;SDS011;47897;50.322;18.892;2023-03-14T15:35:54;23.00;;;13.50;;
61938;SDS011;47897;50.322;18.892;2023-03-14T15:38:21;24.90;;;13.20;;
61938;SDS011;47897;50.322;18.892;2023-03-14T15:40:50;27.10;;;16.20;;
61938;SDS011;47897;50.322;18.892;2023-03-14T15:43:17;26.20;;;15.20;;
61938;SDS011;47897;50.322;18.892;2023-03-14T15:45:44;30.10;;;15.20;;
61938;SDS011;47897;50.322;18.892;2023-03-14T15:48:12;25.40;;;14.60;;
61938;SDS011;47897;50.322;18.892;2023-03-14T15:50:40;22.20;;;12.30;;
61938;SDS011;47897;50.322;18.892;2023-03-14T15:53:07;26.30;;;14.90;;
61938;SDS011;47897;50.322;18.892;2023-03-14T15:55:34;32.80;;;16.20;;
61938;SDS011;47897;50.322;18.892;2023-03-14T15:58:00;31.20;;;16.10;;